createdAt,value
2019-01-02T00:00:37.451Z,97.56
2019-01-02T00:05:33.282Z,96.09
2019-01-02T00:10:36.377Z,100.00
2019-01-02T00:15:33.153Z,100.00
2019-01-02T00:20:30.312Z,100.00
2019-01-02T00:26:24.705Z,100.00
2019-01-02T00:31:37.245Z,100.00
2019-01-02T00:44:50.663Z,100.00
2019-01-02T01:29:11.124Z,95.99
2019-01-02T01:34:48.764Z,95.95
2019-01-02T01:39:45.668Z,93.98
2019-01-02T01:44:41.794Z,96.05
2019-01-02T01:49:38.347Z,96.25
2019-01-02T01:54:34.732Z,95.75
2019-01-02T01:59:31.758Z,94.28
2019-01-02T02:04:28.820Z,93.29
2019-01-02T02:09:27.280Z,94.30
2019-01-02T02:14:24.509Z,95.73
2019-01-02T02:19:22.348Z,95.01
2019-01-02T02:24:18.480Z,96.89
2019-01-02T02:29:14.502Z,96.28
2019-01-02T02:34:10.709Z,97.65
2019-01-02T02:39:10.493Z,98.78
2019-01-02T02:44:07.587Z,97.38
2019-01-02T02:49:03.889Z,99.85
2019-01-02T02:54:00.147Z,99.91
2019-01-02T02:58:58.500Z,100.00
2019-01-02T03:03:54.486Z,100.00
2019-01-02T03:08:51.216Z,100.00
2019-01-02T03:13:48.702Z,98.68
2019-01-02T03:18:46.025Z,98.57
2019-01-02T03:23:43.558Z,96.57
2019-01-02T03:28:42.546Z,98.25
2019-01-02T03:33:39.314Z,96.96
2019-01-02T03:38:36.996Z,95.55
2019-01-02T03:43:32.893Z,95.58
2019-01-02T03:48:36.445Z,96.43
2019-01-02T03:53:32.979Z,92.53
2019-01-02T03:58:29.153Z,92.46
2019-01-02T04:03:25.043Z,94.72
2019-01-02T04:08:21.228Z,95.52
2019-01-02T04:13:17.968Z,97.45
2019-01-02T04:18:13.881Z,98.50
2019-01-02T04:23:10.624Z,98.73
2019-01-02T04:28:06.851Z,99.72
2019-01-02T04:33:02.685Z,99.48
2019-01-02T04:37:58.552Z,97.06
2019-01-02T04:42:54.406Z,98.58
2019-01-02T04:47:50.309Z,96.52
2019-01-02T04:52:46.129Z,96.47
2019-01-02T04:57:42.399Z,95.64
2019-01-02T05:02:38.332Z,96.66
2019-01-02T05:07:35.329Z,95.25
2019-01-02T05:12:31.754Z,93.79
2019-01-02T05:17:27.613Z,94.13
2019-01-02T05:22:24.919Z,94.24
2019-01-02T05:27:20.789Z,91.57
2019-01-02T05:32:16.691Z,92.50
2019-01-02T05:37:27.436Z,90.60
2019-01-02T05:42:23.377Z,87.44
2019-01-02T05:47:19.433Z,86.57
2019-01-02T05:52:16.084Z,88.68
2019-01-02T05:57:12.208Z,86.81
2019-01-02T06:02:08.685Z,88.53
2019-01-02T06:07:04.721Z,88.12
2019-01-02T06:12:08.640Z,86.49
2019-01-02T06:17:04.726Z,86.39
2019-01-02T06:22:00.806Z,78.96
2019-01-02T06:26:56.840Z,75.39
2019-01-02T06:31:52.707Z,76.37
2019-01-02T06:36:48.600Z,83.37
2019-01-02T06:41:44.803Z,83.62
2019-01-02T06:46:40.941Z,77.60
2019-01-02T06:51:36.773Z,77.92
2019-01-02T06:56:32.689Z,79.02
2019-01-02T07:01:29.046Z,78.66
2019-01-02T07:06:25.199Z,82.14
2019-01-02T07:11:21.183Z,84.58
2019-01-02T07:16:17.109Z,77.50
2019-01-02T07:21:13.202Z,77.40
2019-01-02T07:26:09.078Z,76.43
2019-01-02T07:31:05.278Z,73.69
2019-01-02T07:37:06.573Z,76.86
2019-01-02T07:42:53.629Z,76.91
2019-01-02T07:49:13.880Z,77.15
2019-01-02T07:55:08.247Z,73.97
2019-01-02T08:01:02.370Z,73.14
2019-01-02T08:07:02.421Z,76.27
2019-01-02T08:12:45.658Z,74.90
2019-01-02T08:18:15.498Z,74.52
2019-01-02T08:24:16.431Z,75.68
2019-01-02T08:30:06.029Z,78.11
2019-01-02T08:36:17.701Z,72.94
2019-01-02T08:42:09.488Z,75.61
2019-01-02T08:48:26.676Z,77.06
2019-01-02T08:54:03.954Z,72.47
2019-01-02T09:00:08.091Z,73.32
2019-01-02T09:05:54.149Z,73.39
2019-01-02T09:12:04.559Z,74.53
2019-01-02T09:18:00.536Z,71.55
2019-01-02T09:23:52.171Z,73.75
2019-01-02T09:29:48.897Z,73.71
2019-01-02T09:35:35.322Z,75.29
2019-01-02T09:41:30.114Z,77.74
2019-01-02T09:47:22.176Z,74.60
2019-01-02T09:53:59.168Z,74.49
2019-01-02T10:01:52.786Z,73.47
2019-01-02T10:06:02.377Z,73.62
2019-01-02T10:12:04.258Z,72.29
2019-01-02T10:18:20.336Z,72.61
2019-01-02T10:24:38.398Z,73.69
2019-01-02T10:31:30.823Z,73.31
2019-01-02T10:50:47.533Z,75.15
2019-01-02T10:56:50.156Z,74.65
2019-01-02T11:02:41.373Z,72.60
2019-01-02T11:08:37.876Z,74.93
2019-01-02T11:14:58.733Z,73.40
2019-01-02T11:22:53.441Z,73.94
2019-01-02T11:27:30.890Z,78.17
2019-01-02T11:33:41.785Z,73.31
2019-01-02T11:39:16.970Z,74.57
2019-01-02T11:45:20.928Z,72.78
2019-01-02T12:02:37.876Z,71.88
2019-01-02T12:07:35.021Z,73.13
2019-01-02T12:12:31.204Z,74.98
2019-01-02T12:17:27.058Z,74.77
2019-01-02T12:22:22.956Z,74.43
2019-01-02T12:27:18.715Z,75.79
2019-01-02T12:32:14.662Z,75.53
2019-01-02T12:37:10.464Z,74.28
2019-01-02T12:42:07.931Z,71.97
2019-01-02T12:47:03.860Z,73.71
2019-01-02T12:52:00.097Z,76.09
2019-01-02T12:56:56.052Z,75.05
2019-01-02T13:03:24.027Z,78.89
2019-01-02T13:09:42.921Z,79.12
2019-01-02T13:16:32.304Z,78.20
2019-01-02T13:22:31.757Z,75.67
2019-01-02T13:29:06.482Z,73.43
2019-01-02T13:34:53.094Z,76.02
2019-01-02T13:41:04.728Z,75.33
2019-01-02T13:47:08.807Z,73.98
2019-01-02T13:52:26.872Z,73.10
2019-01-02T14:09:20.271Z,74.79
2019-01-02T14:27:09.286Z,73.85
2019-01-02T14:32:24.823Z,71.51
2019-01-02T14:49:54.361Z,72.53
2019-01-02T14:54:50.290Z,74.30
2019-01-02T14:59:46.229Z,72.71
2019-01-02T15:04:42.030Z,75.21
2019-01-02T15:09:37.805Z,70.78
2019-01-02T15:14:34.136Z,74.59
2019-01-02T15:19:29.965Z,76.04
2019-01-02T15:24:25.914Z,78.65
2019-01-02T15:29:21.918Z,78.99
2019-01-02T15:34:17.992Z,77.23
2019-01-02T15:39:13.905Z,76.98
2019-01-02T15:44:09.912Z,76.28
2019-01-02T15:49:05.815Z,77.15
2019-01-02T15:54:01.713Z,77.64
2019-01-02T15:58:58.503Z,79.81
2019-01-02T16:03:54.402Z,77.04
2019-01-02T16:08:50.143Z,79.29
2019-01-02T16:13:46.037Z,78.81
2019-01-02T16:18:41.894Z,81.96
2019-01-02T16:23:37.757Z,81.52
2019-01-02T16:28:33.773Z,76.79
2019-01-02T16:33:29.746Z,77.24
2019-01-02T16:45:34.500Z,77.35
2019-01-02T17:03:21.366Z,76.30
2019-01-02T17:08:17.557Z,74.23
2019-01-02T17:13:14.522Z,75.76
2019-01-02T17:18:10.363Z,77.54
2019-01-02T17:23:06.269Z,76.01
2019-01-02T17:28:02.075Z,79.48
2019-01-02T17:33:00.399Z,80.45
2019-01-02T17:43:04.601Z,78.87
2019-01-02T17:48:00.388Z,81.65
2019-01-02T17:52:56.244Z,82.61
2019-01-02T17:57:51.996Z,82.34
2019-01-02T18:02:48.026Z,81.07
2019-01-02T18:07:43.888Z,85.27
2019-01-02T18:12:39.659Z,80.77
2019-01-02T18:17:35.402Z,81.41
2019-01-02T18:22:31.192Z,84.66
2019-01-02T18:27:27.068Z,85.42
2019-01-02T18:32:23.127Z,85.83
2019-01-02T18:37:19.003Z,84.83
2019-01-02T18:42:14.825Z,82.58
2019-01-02T18:47:10.686Z,80.21
2019-01-02T18:52:06.469Z,79.84
2019-01-02T18:57:04.140Z,74.22
2019-01-02T19:02:00.109Z,75.62
2019-01-02T19:06:55.868Z,79.44
2019-01-02T19:11:54.311Z,79.08
2019-01-02T19:16:50.073Z,79.59
2019-01-02T19:21:46.614Z,82.57
2019-01-02T19:26:42.527Z,83.62
2019-01-02T19:31:39.183Z,82.81
2019-01-02T19:36:34.985Z,83.43
2019-01-02T19:41:30.866Z,83.61
2019-01-02T19:46:26.992Z,84.62
2019-01-02T19:51:22.758Z,77.71
2019-01-02T19:56:18.653Z,82.86
2019-01-02T20:01:14.734Z,81.90
2019-01-02T20:11:20.063Z,83.71
2019-01-02T20:16:16.072Z,84.16
2019-01-02T20:21:12.021Z,79.38
2019-01-02T20:26:08.858Z,84.26
2019-01-02T20:31:04.679Z,84.40
2019-01-02T20:36:01.915Z,85.33
2019-01-02T20:40:57.761Z,85.41
2019-01-02T20:45:53.748Z,86.30
2019-01-02T20:50:49.573Z,86.73
2019-01-02T20:55:45.368Z,85.82
2019-01-02T21:00:41.184Z,81.97
2019-01-02T21:05:36.978Z,79.41
2019-01-02T21:10:33.056Z,81.68
2019-01-02T21:15:28.860Z,82.82
2019-01-02T21:20:24.661Z,84.40
2019-01-02T21:25:20.526Z,85.17
2019-01-02T21:30:18.956Z,84.18
2019-01-02T21:35:14.957Z,81.70
2019-01-02T21:40:11.484Z,83.80
2019-01-02T21:45:08.764Z,85.61
2019-01-02T21:50:05.264Z,86.35
2019-01-02T21:55:01.044Z,88.08
2019-01-02T21:59:57.351Z,86.05
2019-01-02T22:04:53.237Z,86.99
2019-01-02T22:09:51.531Z,86.19
2019-01-02T22:14:47.569Z,84.48
2019-01-02T22:19:44.060Z,85.68
2019-01-02T22:24:39.784Z,86.73
2019-01-02T22:29:35.641Z,89.19
2019-01-02T22:34:33.847Z,88.10
2019-01-02T22:39:29.760Z,89.48
2019-01-02T22:44:27.998Z,89.92
2019-01-02T22:49:23.908Z,91.29
2019-01-02T22:54:31.824Z,91.74
2019-01-02T22:59:29.198Z,91.71
2019-01-02T23:04:45.431Z,92.05
2019-01-02T23:09:49.558Z,92.41
2019-01-02T23:15:13.177Z,92.28
2019-01-02T23:20:33.881Z,89.37
2019-01-02T23:25:54.647Z,92.18
2019-01-02T23:31:08.308Z,91.53
2019-01-02T23:36:30.076Z,92.55
2019-01-02T23:41:58.200Z,91.20
2019-01-02T23:47:14.543Z,93.20
2019-01-02T23:52:38.603Z,92.22
2019-01-02T23:57:52.403Z,91.08
